sensor_id;sensor_type;location;lat;lon;timestamp;pressure;altitude;pressure_sealevel;temperature
77385;BMP280;66444;49.680;18.538;2023-04-01T00:03:34;95853.6347123359;;;9.850944265397265
77385;BMP280;66444;49.680;18.538;2023-04-01T00:08:48;95841.10684404321;;;9.820416575111448
77385;BMP280;66444;49.680;18.538;2023-04-01T00:13:57;95857.37702999989;;;9.733920314675197
77385;BMP280;66444;49.680;18.538;2023-04-01T00:19:05;95838.78068612791;;;9.698303718492388
77385;BMP280;66444;49.680;18.538;2023-04-01T00:24:14;95852.06817968057;;;9.733920314675197
77385;BMP280;66444;49.680;18.538;2023-04-01T00:29:23;95850.5777203038;;;9.794976673135533
77385;BMP280;66444;49.680;18.538;2023-04-01T00:34:32;95852.12759751386;;;9.876383847231045
77385;BMP280;66444;49.680;18.538;2023-04-01T00:39:46;95848.3643256736;;;9.957789531210437
77385;BMP280;66444;49.680;18.538;2023-04-01T00:44:55;95848.38798422471;;;10.029018282331526
77385;BMP280;66444;49.680;18.538;2023-04-01T00:50:04;95853.33600176932;;;10.079895263211801
77385;BMP280;66444;49.680;18.538;2023-04-01T00:55:13;95851.45081623057;;;10.120596428820864
77385;BMP280;66444;49.680;18.538;2023-04-01T01:00:26;95844.25215388046;;;10.161297221900895
77385;BMP280;66444;49.680;18.538;2023-04-01T01:05:38;95830.97086472002;;;10.161297221900895
77385;BMP280;66444;49.680;18.538;2023-04-01T01:11:03;95835.53159943513;;;10.191822572238744
77385;BMP280;66444;49.680;18.538;2023-04-01T01:16:17;95833.25917517024;;;10.212172689381987
77385;BMP280;66444;49.680;18.538;2023-04-01T01:21:38;95840.84438023185;;;10.191822572238744
77385;BMP280;66444;49.680;18.538;2023-04-01T01:26:59;95827.54606459253;;;10.120596428820864
77385;BMP280;66444;49.680;18.538;2023-04-01T01:32:15;95836.26506808409;;;10.090070589538664
77385;BMP280;66444;49.680;18.538;2023-04-01T01:37:35;95830.20213836303;;;10.120596428820864
77385;BMP280;66444;49.680;18.538;2023-04-01T01:42:48;95841.59589117531;;;10.161297221900895
77385;BMP280;66444;49.680;18.538;2023-04-01T01:48:01;95834.01134680762;;;10.181647478742525
77385;BMP280;66444;49.680;18.538;2023-04-01T01:53:13;95840.84438023185;;;10.191822572238744
77385;BMP280;66444;49.680;18.538;2023-04-01T01:58:28;95849.95829019487;;;10.217260204115883
77385;BMP280;66444;49.680;18.538;2023-04-01T02:03:40;95856.03159260663;;;10.222347713029013
77385;BMP280;66444;49.680;18.538;2023-04-01T02:08:53;95862.11386269087;;;10.26304757478647
77385;BMP280;66444;49.680;18.538;2023-04-01T02:14:06;95858.32092266408;;;10.273222482018173
77385;BMP280;66444;49.680;18.538;2023-04-01T02:19:26;95838.58705326433;;;10.283397365966811
77385;BMP280;66444;49.680;18.538;2023-04-01T02:24:40;95845.42087085372;;;10.293572226632387
77385;BMP280;66444;49.680;18.538;2023-04-01T02:29:52;95849.974384227;;;10.288484799209982
77385;BMP280;66444;49.680;18.538;2023-04-01T02:35:01;95848.07770924323;;;10.293572226632387
77385;BMP280;66444;49.680;18.538;2023-04-01T02:40:14;95856.04823903726;;;10.293572226632387
77385;BMP280;66444;49.680;18.538;2023-04-01T02:45:29;95861.36193775451;;;10.293572226632387
77385;BMP280;66444;49.680;18.538;2023-04-01T02:50:38;95853.00740558516;;;10.273222482018173
77385;BMP280;66444;49.680;18.538;2023-04-01T02:55:47;95862.88245685886;;;10.303747064014896
77385;BMP280;66444;49.680;18.538;2023-04-01T03:00:55;95858.70508717709;;;10.293572226632387
77385;BMP280;66444;49.680;18.538;2023-04-01T03:06:05;95858.70508717709;;;10.293572226632387
77385;BMP280;66444;49.680;18.538;2023-04-01T03:11:15;95864.3947457846;;;10.278309926902875
77385;BMP280;66444;49.680;18.538;2023-04-01T03:16:24;95870.46867140148;;;10.283397365966811
77385;BMP280;66444;49.680;18.538;2023-04-01T03:21:33;95875.78230854936;;;10.283397365966811
77385;BMP280;66444;49.680;18.538;2023-04-01T03:26:41;95870.46867140148;;;10.283397365966811
77385;BMP280;66444;49.680;18.538;2023-04-01T03:31:51;95864.77907206357;;;10.298659648234025
77385;BMP280;66444;49.680;18.538;2023-04-01T03:37:00;95866.67564622211;;;10.293572226632387
77385;BMP280;66444;49.680;18.538;2023-04-01T03:42:09;95870.46867140148;;;10.283397365966811
77385;BMP280;66444;49.680;18.538;2023-04-01T03:47:18;95868.94798607095;;;10.273222482018173
77385;BMP280;66444;49.680;18.538;2023-04-01T03:52:27;95859.84142635575;;;10.283397365966811
77385;BMP280;66444;49.680;18.538;2023-04-01T03:57:41;95876.53337766833;;;10.2528726442717
77385;BMP280;66444;49.680;18.538;2023-04-01T04:02:47;95875.01253383393;;;10.24269769047387
77385;BMP280;66444;49.680;18.538;2023-04-01T04:07:53;95869.67950075475;;;10.171472361963243
77385;BMP280;66444;49.680;18.538;2023-04-01T04:12:59;95864.74193239666;;;10.156209643138572
77385;BMP280;66444;49.680;18.538;2023-04-01T04:18:10;95877.26274398505;;;10.151122058555483
77385;BMP280;66444;49.680;18.538;2023-04-01T04:23:16;95871.95024847717;;;10.151122058555483
77385;BMP280;66444;49.680;18.538;2023-04-01T04:28:22;95871.95024847717;;;10.151122058555483
77385;BMP280;66444;49.680;18.538;2023-04-01T04:33:29;95884.09638684159;;;10.161297221900895
77385;BMP280;66444;49.680;18.538;2023-04-01T04:38:35;95871.97086931238;;;10.222347713029013
77385;BMP280;66444;49.680;18.538;2023-04-01T04:43:41;95884.88865430388;;;10.273222482018173
77385;BMP280;66444;49.680;18.538;2023-04-01T04:48:53;95877.30309240826;;;10.293572226632387
77385;BMP280;66444;49.680;18.538;2023-04-01T04:53:59;95880.34468324528;;;10.313921878114343
77385;BMP280;66444;49.680;18.538;2023-04-01T04:59:06;95878.07221364307;;;10.334271436464041
77385;BMP280;66444;49.680;18.538;2023-04-01T05:04:12;95879.59294519816;;;10.344446180714295
77385;BMP280;66444;49.680;18.538;2023-04-01T05:09:18;95884.90712727509;;;10.344446180714295
77385;BMP280;66444;49.680;18.538;2023-04-01T05:14:24;95885.65860260659;;;10.313921878114343
77385;BMP280;66444;49.680;18.538;2023-04-01T05:19:34;95887.93057759572;;;10.293572226632387
77385;BMP280;66444;49.680;18.538;2023-04-01T05:24:40;95891.72327849298;;;10.283397365966811
77385;BMP280;66444;49.680;18.538;2023-04-01T05:29:46;95907.67500714264;;;10.319009276432917
77385;BMP280;66444;49.680;18.538;2023-04-01T05:34:53;95907.68514647466;;;10.354620901681482
77385;BMP280;66444;49.680;18.538;2023-04-01T05:39:59;95901.25237835152;;;10.436017831228673
77385;BMP280;66444;49.680;18.538;2023-04-01T05:45:06;95901.26788202506;;;10.507238922221585
77385;BMP280;66444;49.680;18.538;2023-04-01T05:50:12;95896.32150006462;;;10.456366830784827
77385;BMP280;66444;49.680;18.538;2023-04-01T05:55:19;95900.49995867147;;;10.466541295638308
77385;BMP280;66444;49.680;18.538;2023-04-01T06:00:25;95891.77378180098;;;10.497064550500363
77385;BMP280;66444;49.680;18.538;2023-04-01T06:05:36;95898.61007047263;;;10.507238922221585
77385;BMP280;66444;49.680;18.538;2023-04-01T06:10:50;95902.43033587279;;;10.639503635838627
77385;BMP280;66444;49.680;18.538;2023-04-01T06:16:22;95896.75298202754;;;10.832806523842738
77385;BMP280;66444;49.680;18.538;2023-04-01T06:22:15;95899.41690487809;;;10.975234852405265
77385;BMP280;66444;49.680;18.538;2023-04-01T06:27:38;95906.25625605373;;;11.056620419817046
77385;BMP280;66444;49.680;18.538;2023-04-01T06:33:15;95898.65496412234;;;11.076966578839347
77385;BMP280;66444;49.680;18.538;2023-04-01T06:38:39;95900.93684648241;;;10.985408129822464
77385;BMP280;66444;49.680;18.538;2023-04-01T06:43:59;95907.01604516202;;;10.954888227721677
77385;BMP280;66444;49.680;18.538;2023-04-01T06:49:24;95914.61266184649;;;10.898934529628605
77385;BMP280;66444;49.680;18.538;2023-04-01T06:54:41;95913.47508456626;;;10.944714880455285
77385;BMP280;66444;49.680;18.538;2023-04-01T06:59:59;95918.03581769085;;;10.975234852405265
77385;BMP280;66444;49.680;18.538;2023-04-01T07:05:14;95912.3366504291;;;11.06170696830377
77385;BMP280;66444;49.680;18.538;2023-04-01T07:10:28;95911.57076592644;;;11.199041577195748
77385;BMP280;66444;49.680;18.538;2023-04-01T07:15:42;95916.49219600282;;;11.392320134397597
77385;BMP280;66444;49.680;18.538;2023-04-01T07:21:00;95918.37680071937;;;11.494042314775289
77385;BMP280;66444;49.680;18.538;2023-04-01T07:26:11;95923.7069945835;;;11.458439816487953
77385;BMP280;66444;49.680;18.538;2023-04-01T07:31:29;95923.70100395725;;;11.494042314775289
77385;BMP280;66444;49.680;18.538;2023-04-01T07:36:51;95931.31026256907;;;11.473698064964264
77385;BMP280;66444;49.680;18.538;2023-04-01T07:42:07;95928.64824080405;;;11.473698064964264
77385;BMP280;66444;49.680;18.538;2023-04-01T07:47:25;95932.84788101312;;;11.341458171093837
77385;BMP280;66444;49.680;18.538;2023-04-01T07:52:48;95941.96709701938;;;11.402492457209155
77385;BMP280;66444;49.680;18.538;2023-04-01T07:58:03;95933.59498453337;;;11.453353722020983
77385;BMP280;66444;49.680;18.538;2023-04-01T08:03:21;95946.50644899714;;;11.575418382696807
77385;BMP280;66444;49.680;18.538;2023-04-01T08:08:44;95950.31166527027;;;11.565246455697343
77385;BMP280;66444;49.680;18.538;2023-04-01T08:14:04;95955.24779388124;;;11.616105857864023
77385;BMP280;66444;49.680;18.538;2023-04-01T08:19:22;95952.5851335876;;;11.616105857864023
77385;BMP280;66444;49.680;18.538;2023-04-01T08:24:41;95951.78668639573;;;11.789023471297696
77385;BMP280;66444;49.680;18.538;2023-04-01T08:29:50;95944.41862506907;;;12.185691394656896
77385;BMP280;66444;49.680;18.538;2023-04-01T08:35:07;95946.05834049871;;;12.67893415200524
77385;BMP280;66444;49.680;18.538;2023-04-01T08:40:27;95950.53999919492;;;12.81621878379956
77385;BMP280;66444;49.680;18.538;2023-04-01T08:45:56;95949.02253503105;;;12.806049697333947
77385;BMP280;66444;49.680;18.538;2023-04-01T08:51:24;95957.80858248082;;;12.775542298238724
77385;BMP280;66444;49.680;18.538;2023-04-01T08:56:55;95946.81716240701;;;12.684018843667582
77385;BMP280;66444;49.680;18.538;2023-04-01T09:02:16;95960.13129149063;;;12.71961152232252
77385;BMP280;66444;49.680;18.538;2023-04-01T09:07:39;95963.43873870221;;;12.902655078703537
77385;BMP280;66444;49.680;18.538;2023-04-01T09:12:58;95959.90645651119;;;13.03993279542774
77385;BMP280;66444;49.680;18.538;2023-04-01T09:18:29;95963.49339324853;;;13.314475498860702
77385;BMP280;66444;49.680;18.538;2023-04-01T09:24:01;95969.19708036534;;;13.334811320202425
77385;BMP280;66444;49.680;18.538;2023-04-01T09:29:30;95963.22050386989;;;13.187374505447224
77385;BMP280;66444;49.680;18.538;2023-04-01T09:37:17;95977.97763336383;;;12.821303318301215
77385;BMP280;66444;49.680;18.538;2023-04-01T09:42:31;95975.33268130955;;;12.78571145455353
77385;BMP280;66444;49.680;18.538;2023-04-01T09:47:51;95965.73999954143;;;12.882317278301343
77385;BMP280;66444;49.680;18.538;2023-04-01T09:53:15;95972.70953171488;;;12.714526871405543
77385;BMP280;66444;49.680;18.538;2023-04-01T09:58:48;95985.71792654441;;;12.623002159548923
77385;BMP280;66444;49.680;18.538;2023-04-01T10:06:41;95989.32635343031;;;12.236543695488944
77385;BMP280;66444;49.680;18.538;2023-04-01T10:12:23;95989.72598522699;;;12.185691394656896
77385;BMP280;66444;49.680;18.538;2023-04-01T10:17:55;95998.55480478925;;;11.941592248156667
77385;BMP280;66444;49.680;18.538;2023-04-01T10:23:22;96002.03390117266;;;11.626277668448164
77385;BMP280;66444;49.680;18.538;2023-04-01T10:28:53;95999.38033197894;;;11.519472496071831
77385;BMP280;66444;49.680;18.538;2023-04-01T10:34:32;95999.68107723266;;;12.0026182920672
77385;BMP280;66444;49.680;18.538;2023-04-01T10:42:01;96002.07125855934;;;12.67893415200524
77385;BMP280;66444;49.680;18.538;2023-04-01T10:48:37;95999.2293113277;;;12.963667921116576
77385;BMP280;66444;49.680;18.538;2023-04-01T10:54:18;96001.13881541962;;;12.95858354959637
77385;BMP280;66444;49.680;18.538;2023-04-01T11:01:55;96010.7932909341;;;12.755203915759921
77385;BMP280;66444;49.680;18.538;2023-04-01T11:07:34;96003.93949236655;;;12.745034689595922
77385;BMP280;66444;49.680;18.538;2023-04-01T11:13:10;95990.83195371473;;;12.978921000752598
77385;BMP280;66444;49.680;18.538;2023-04-01T11:18:43;95995.83778679887;;;13.405985961481928
77385;BMP280;66444;49.680;18.538;2023-04-01T11:24:18;95995.50240996739;;;13.761842054827138
77385;BMP280;66444;49.680;18.538;2023-04-01T11:29:43;95986.3764336608;;;14.077005061786622
77385;BMP280;66444;49.680;18.538;2023-04-01T11:35:06;95975.153414528;;;14.19899763809517
77385;BMP280;66444;49.680;18.538;2023-04-01T11:40:31;95979.96608611006;;;14.32098686164245
77385;BMP280;66444;49.680;18.538;2023-04-01T11:45:45;95987.58785729503;;;14.336235278844834
77385;BMP280;66444;49.680;18.538;2023-04-01T11:51:04;95980.50116161282;;;14.19899763809517
77385;BMP280;66444;49.680;18.538;2023-04-01T11:56:28;95990.80448008791;;;13.873676650691777
77385;BMP280;66444;49.680;18.538;2023-04-01T12:01:53;95998.08232407049;;;13.456824292475357
77385;BMP280;66444;49.680;18.538;2023-04-01T12:07:08;95996.11930492986;;;13.05010134638287
77385;BMP280;66444;49.680;18.538;2023-04-01T12:12:29;96006.23750609487;;;12.724696167418733
77385;BMP280;66444;49.680;18.538;2023-04-01T12:17:43;95993.82443814685;;;12.409437164384872
77385;BMP280;66444;49.680;18.538;2023-04-01T12:23:01;96000.361162052;;;12.256884452840314
77385;BMP280;66444;49.680;18.538;2023-04-01T12:28:22;95996.20205756917;;;12.175520864641294
77385;BMP280;66444;49.680;18.538;2023-04-01T12:33:44;96004.95720949226;;;12.180606132559479
77385;BMP280;66444;49.680;18.538;2023-04-01T12:39:06;95994.25676880582;;;12.287395414244383
77385;BMP280;66444;49.680;18.538;2023-04-01T12:44:34;96001.07849151366;;;12.368756953533738
77385;BMP280;66444;49.680;18.538;2023-04-01T12:49:55;95995.73107637963;;;12.404352158401162
77385;BMP280;66444;49.680;18.538;2023-04-01T12:55:25;96004.06924002852;;;12.495881375530734
77385;BMP280;66444;49.680;18.538;2023-04-01T13:00:46;96007.34580523413;;;12.78571145455353
77385;BMP280;66444;49.680;18.538;2023-04-01T13:06:40;95999.0482790696;;;13.212794995168224
77385;BMP280;66444;49.680;18.538;2023-04-01T13:12:00;95998.08232407049;;;13.456824292475357
77385;BMP280;66444;49.680;18.538;2023-04-01T13:17:30;96007.18508556852;;;13.517829521326348
77385;BMP280;66444;49.680;18.538;2023-04-01T13:22:49;95998.44578471963;;;13.47715946189128
77385;BMP280;66444;49.680;18.538;2023-04-01T13:28:08;96012.64894440417;;;13.3754826834891
77385;BMP280;66444;49.680;18.538;2023-04-01T13:33:24;96009.97860999442;;;13.3754826834891
77385;BMP280;66444;49.680;18.538;2023-04-01T13:38:46;96008.0964692437;;;13.34497919594869
77385;BMP280;66444;49.680;18.538;2023-04-01T13:44:06;96016.41287707984;;;13.436489029927179
77385;BMP280;66444;49.680;18.538;2023-04-01T13:49:22;96015.68396384174;;;13.39581822543405
77385;BMP280;66444;49.680;18.538;2023-04-01T13:56:01;96019.53611818986;;;13.350063125090674
77385;BMP280;66444;49.680;18.538;2023-04-01T14:01:23;96014.69990556226;;;13.192458615032956
77385;BMP280;66444;49.680;18.538;2023-04-01T14:06:40;96026.97300663016;;;13.578833911987022
77385;BMP280;66444;49.680;18.538;2023-04-01T14:12:08;96021.35759953459;;;13.863509985664859
77385;BMP280;66444;49.680;18.538;2023-04-01T14:17:28;96022.07939843809;;;13.904176506074146
77385;BMP280;66444;49.680;18.538;2023-04-01T14:22:46;96015.29732979223;;;16.302841833839192
77385;BMP280;66444;49.680;18.538;2023-04-01T14:28:12;96021.0685025006;;;17.75056058242917
77385;BMP280;66444;49.680;18.538;2023-04-01T14:33:31;96012.01149254697;;;17.689613537956028
77385;BMP280;66444;49.680;18.538;2023-04-01T14:38:52;96021.41788376097;;;17.31883429181762
77385;BMP280;66444;49.680;18.538;2023-04-01T14:44:24;96023.14081941026;;;17.83690079394728
77385;BMP280;66444;49.680;18.538;2023-04-01T14:49:48;96012.859991643;;;19.654733352875336
77385;BMP280;66444;49.680;18.538;2023-04-01T14:54:58;96035.06204608033;;;21.11658232039772
77385;BMP280;66444;49.680;18.538;2023-04-01T15:00:12;96021.82604142444;;;21.68494875594042
77385;BMP280;66444;49.680;18.538;2023-04-01T15:05:25;96021.60147346214;;;22.415598313277588
77385;BMP280;66444;49.680;18.538;2023-04-01T15:10:42;96019.51715769632;;;22.36486266059801
77385;BMP280;66444;49.680;18.538;2023-04-01T15:16:02;96018.05520065507;;;22.263389609009028
77385;BMP280;66444;49.680;18.538;2023-04-01T15:21:18;96009.74711441374;;;22.628681698255242
77385;BMP280;66444;49.680;18.538;2023-04-01T15:26:42;96015.51098692938;;;22.227873490890488
77385;BMP280;66444;49.680;18.538;2023-04-01T15:32:04;96026.35508006783;;;23.034526407159866
77385;BMP280;66444;49.680;18.538;2023-04-01T15:37:25;96025.28699139574;;;23.247579966532065
77385;BMP280;66444;49.680;18.538;2023-04-01T15:42:44;96029.78427675087;;;23.278015351109207
77385;BMP280;66444;49.680;18.538;2023-04-01T15:48:20;96041.01366444165;;;22.730146367941053
77385;BMP280;66444;49.680;18.538;2023-04-01T15:53:51;96042.9458542789;;;22.48662724914029
77385;BMP280;66444;49.680;18.538;2023-04-01T15:59:17;96048.7674879722;;;22.232947239512576
77385;BMP280;66444;49.680;18.538;2023-04-01T16:04:44;96053.14011819765;;;22.207578438194467
77385;BMP280;66444;49.680;18.538;2023-04-01T16:10:07;96068.288101827;;;21.66972560668364
77385;BMP280;66444;49.680;18.538;2023-04-01T16:15:25;96081.25092403764;;;20.1522222623229
77385;BMP280;66444;49.680;18.538;2023-04-01T16:20:40;96088.3236660577;;;18.96424796055071
77385;BMP280;66444;49.680;18.538;2023-04-01T16:25:54;96086.73069721833;;;17.613428553659467
77385;BMP280;66444;49.680;18.538;2023-04-01T16:31:13;96096.58538104988;;;16.668625940801576
77385;BMP280;66444;49.680;18.538;2023-04-01T16:36:41;96108.65159029406;;;15.525450416607782
77385;BMP280;66444;49.680;18.538;2023-04-01T16:41:54;96110.6934011764;;;14.605615344736725
77385;BMP280;66444;49.680;18.538;2023-04-01T16:47:21;96114.40427202548;;;13.985508429305629
77385;BMP280;66444;49.680;18.538;2023-04-01T16:52:36;96130.55933119461;;;13.324643421173096
77385;BMP280;66444;49.680;18.538;2023-04-01T16:58:00;96126.98167112704;;;12.872148343175649
77385;BMP280;66444;49.680;18.538;2023-04-01T17:03:13;96138.51489283128;;;12.592493503168225
77385;BMP280;66444;49.680;18.538;2023-04-01T17:08:30;96146.51608019689;;;12.592493503168225
77385;BMP280;66444;49.680;18.538;2023-04-01T17:14:02;96143.91208742793;;;12.30773593876511
77385;BMP280;66444;49.680;18.538;2023-04-01T17:19:24;96148.88498241227;;;12.109411852015182
77385;BMP280;66444;49.680;18.538;2023-04-01T17:24:49;96158.78673707016;;;11.961934355925768
77385;BMP280;66444;49.680;18.538;2023-04-01T17:30:13;96171.72335098022;;;11.870394137548283
77385;BMP280;66444;49.680;18.538;2023-04-01T17:35:30;96173.24048215833;;;11.809366277558729
77385;BMP280;66444;49.680;18.538;2023-04-01T17:40:44;96188.44539678682;;;11.697479690611363
77385;BMP280;66444;49.680;18.538;2023-04-01T17:46:05;96171.69903818009;;;11.656792960502207
77385;BMP280;66444;49.680;18.538;2023-04-01T17:51:33;96192.23436463489;;;11.616105857864023
77385;BMP280;66444;49.680;18.538;2023-04-01T17:56:49;96206.7034629673;;;11.677136372122913
77385;BMP280;66444;49.680;18.538;2023-04-01T18:02:13;96202.12392401705;;;11.611019943840802
77385;BMP280;66444;49.680;18.538;2023-04-01T18:08:36;96211.24222431648;;;11.565246455697343
77385;BMP280;66444;49.680;18.538;2023-04-01T18:13:56;96223.39651486966;;;11.504214404756203
77385;BMP280;66444;49.680;18.538;2023-04-01T18:19:23;96237.04564227806;;;11.382147788302973
77385;BMP280;66444;49.680;18.538;2023-04-01T18:24:43;96230.15459665892;;;11.265164134744555
77385;BMP280;66444;49.680;18.538;2023-04-01T18:30:01;96237.7173251478;;;11.173609562357887
77385;BMP280;66444;49.680;18.538;2023-04-01T18:35:17;96237.70032440913;;;11.138004497112707
77385;BMP280;66444;49.680;18.538;2023-04-01T18:40:34;96243.02203202233;;;11.138004497112707
77385;BMP280;66444;49.680;18.538;2023-04-01T18:45:47;96247.5985989176;;;11.168523141928016
77385;BMP280;66444;49.680;18.538;2023-04-01T18:51:01;96260.15863175705;;;11.199041577195748
77385;BMP280;66444;49.680;18.538;2023-04-01T18:56:22;96256.78486425956;;;11.30076818135567
77385;BMP280;66444;49.680;18.538;2023-04-01T19:01:36;96260.97193866858;;;11.310940713714809
77385;BMP280;66444;49.680;18.538;2023-04-01T19:06:53;96269.73581751135;;;11.351630610320717
77385;BMP280;66444;49.680;18.538;2023-04-01T19:12:07;96284.96037627131;;;11.382147788302973
77385;BMP280;66444;49.680;18.538;2023-04-01T19:17:32;96278.88942872957;;;11.41266475673765
77385;BMP280;66444;49.680;18.538;2023-04-01T19:22:56;96277.36380796871;;;11.402492457209155
77385;BMP280;66444;49.680;18.538;2023-04-01T19:30:54;96280.41505704318;;;11.422837032983079
77385;BMP280;66444;49.680;18.538;2023-04-01T19:36:06;96288.79077031843;;;11.443181515624747
77385;BMP280;66444;49.680;18.538;2023-04-01T19:41:23;96301.71212465965;;;11.422837032983079
77385;BMP280;66444;49.680;18.538;2023-04-01T19:46:43;96305.12020349556;;;11.392320134397597
77385;BMP280;66444;49.680;18.538;2023-04-01T19:51:55;96306.96411954895;;;11.2804230467882
77385;BMP280;66444;49.680;18.538;2023-04-01T19:57:10;96316.00018585201;;;11.127831568941474
77385;BMP280;66444;49.680;18.538;2023-04-01T20:02:31;96315.16843577044;;;11.01592782237567
77385;BMP280;66444;49.680;18.538;2023-04-01T20:07:55;96321.91669943144;;;10.883674307912589
77385;BMP280;66444;49.680;18.538;2023-04-01T20:13:15;96323.39116046071;;;10.822632897179574
77385;BMP280;66444;49.680;18.538;2023-04-01T20:18:34;96330.97418123759;;;10.802285574004054
77385;BMP280;66444;49.680;18.538;2023-04-01T20:23:52;96322.99574041915;;;10.802285574004054
77385;BMP280;66444;49.680;18.538;2023-04-01T20:29:15;96326.3913503468;;;10.771764414617792
77385;BMP280;66444;49.680;18.538;2023-04-01T20:34:42;96327.15515070582;;;10.776851289067418
77385;BMP280;66444;49.680;18.538;2023-04-01T20:40:32;96320.3362650296;;;10.802285574004054
77385;BMP280;66444;49.680;18.538;2023-04-01T20:45:45;96328.68275717182;;;10.78702502050437
77385;BMP280;66444;49.680;18.538;2023-04-01T20:51:04;96325.65521825035;;;10.802285574004054
77385;BMP280;66444;49.680;18.538;2023-04-01T20:56:20;96330.97418123759;;;10.802285574004054
77385;BMP280;66444;49.680;18.538;2023-04-01T21:01:40;96330.97418123759;;;10.802285574004054
77385;BMP280;66444;49.680;18.538;2023-04-01T21:07:06;96335.16133744639;;;10.812459247233345
77385;BMP280;66444;49.680;18.538;2023-04-01T21:12:30;96334.42506521134;;;10.842980127222836
77385;BMP280;66444;49.680;18.538;2023-04-01T21:17:53;96337.87571061235;;;10.883674307912589
77385;BMP280;66444;49.680;18.538;2023-04-01T21:23:17;96338.66609672821;;;10.92436811607331
77385;BMP280;66444;49.680;18.538;2023-04-01T21:28:42;96343.95924301012;;;10.888761054305359
77385;BMP280;66444;49.680;18.538;2023-04-01T21:34:09;96346.19558154838;;;10.832806523842738
77385;BMP280;66444;49.680;18.538;2023-04-01T21:39:47;96358.70053451517;;;10.792111877491697
77385;BMP280;66444;49.680;18.538;2023-04-01T21:45:14;96362.88816425727;;;10.802285574004054
77385;BMP280;66444;49.680;18.538;2023-04-01T21:50:45;96363.62245651476;;;10.771764414617792
77385;BMP280;66444;49.680;18.538;2023-04-01T21:56:16;96359.80189331846;;;10.746329955058172
77385;BMP280;66444;49.680;18.538;2023-04-01T22:59:48;96389.56143849151;;;10.130771662015468
77385;BMP280;66444;49.680;18.538;2023-04-01T23:04:59;96392.25912936298;;;10.166384794842452
77385;BMP280;66444;49.680;18.538;2023-04-01T23:10:10;96395.27785413733;;;10.151122058555483
77385;BMP280;66444;49.680;18.538;2023-04-01T23:15:18;96401.80039130863;;;10.212172689381987
77385;BMP280;66444;49.680;18.538;2023-04-01T23:20:28;96397.29136521007;;;10.2528726442717
77385;BMP280;66444;49.680;18.538;2023-04-01T23:25:44;96407.2740097913;;;10.354620901681482
77385;BMP280;66444;49.680;18.538;2023-04-01T23:30:54;96409.60710453181;;;10.405494157271459
77385;BMP280;66444;49.680;18.538;2023-04-01T23:35:56;96414.11907907171;;;10.364795599365607
77385;BMP280;66444;49.680;18.538;2023-04-01T23:41:00;96413.31477747082;;;10.324096668930725
77385;BMP280;66444;49.680;18.538;2023-04-01T23:46:03;96417.50221286375;;;10.334271436464041
77385;BMP280;66444;49.680;18.538;2023-04-01T23:51:10;96421.72931521198;;;10.380057602236047
77385;BMP280;66444;49.680;18.538;2023-04-01T23:56:18;96416.01180820903;;;10.359708253433928
